createdAt,value
2022-12-11T00:02:27.340Z,99947.72
2022-12-11T00:05:29.637Z,99947.53
2022-12-11T00:08:31.944Z,99942.19
2022-12-11T00:11:34.339Z,99931.47
2022-12-11T00:14:36.725Z,99944.22
2022-12-11T00:17:38.998Z,99950.41
2022-12-11T00:20:41.686Z,99941.56
2022-12-11T00:23:44.440Z,99937.66
2022-12-11T00:26:46.735Z,99948.72
2022-12-11T00:29:50.370Z,99935.63
2022-12-11T00:32:52.953Z,99952.44
2022-12-11T00:35:55.273Z,99952.66
2022-12-11T00:38:58.001Z,99943.63
2022-12-11T00:42:00.369Z,99947.09
2022-12-11T00:45:03.115Z,99945.06
2022-12-11T00:48:05.833Z,99934.56
2022-12-11T00:51:08.304Z,99934.97
2022-12-11T00:54:10.644Z,99931.09
2022-12-11T00:57:13.034Z,99929.03
2022-12-11T01:00:15.641Z,99919.75
2022-12-11T01:03:19.153Z,99924.66
2022-12-11T01:06:23.898Z,99914.41
2022-12-11T01:09:45.092Z,99917.28
2022-12-11T01:12:47.452Z,99910.53
2022-12-11T01:15:49.779Z,99916.06
2022-12-11T01:18:52.137Z,99907.81
2022-12-11T01:21:54.745Z,99920.78
2022-12-11T01:24:57.004Z,99918.09
2022-12-11T01:27:59.810Z,99928.44
2022-12-11T01:31:02.244Z,99921.59
2022-12-11T01:34:04.691Z,99920.19
2022-12-11T01:37:07.130Z,99923.44
2022-12-11T01:40:10.680Z,99919.75
2022-12-11T01:43:12.986Z,99927.38
2022-12-11T01:46:15.481Z,99904.53
2022-12-11T01:49:19.726Z,99912.38
2022-12-11T01:52:22.646Z,99911.94
2022-12-11T01:55:24.999Z,99905.16
2022-12-11T01:58:30.608Z,99894.06
2022-12-11T02:01:40.800Z,99904.16
2022-12-11T02:04:44.905Z,99909.72
2022-12-11T02:07:50.860Z,99896.34
2022-12-11T02:10:59.365Z,99897.16
2022-12-11T02:14:34.564Z,99899.81
2022-12-11T02:17:42.994Z,99907.41
2022-12-11T02:21:00.179Z,99907.03
2022-12-11T02:24:14.502Z,99903.94
2022-12-11T02:27:48.097Z,99923.47
2022-12-11T02:31:04.746Z,99915.22
2022-12-11T02:34:14.281Z,99923.66
2022-12-11T02:37:24.611Z,99915.44
2022-12-11T02:40:29.609Z,99921.19
2022-12-11T02:43:33.190Z,99916.88
2022-12-11T02:46:36.917Z,99919.09
2022-12-11T02:49:41.198Z,99889.91
2022-12-11T02:52:43.966Z,99921.19
2022-12-11T02:55:46.845Z,99906.56
2022-12-11T02:58:56.895Z,99896.28
2022-12-11T03:02:01.378Z,99897.94
2022-12-11T03:05:05.645Z,99891.34
2022-12-11T03:08:08.344Z,99879.81
2022-12-11T03:11:12.356Z,99874.91
2022-12-11T03:14:14.910Z,99885.84
2022-12-11T03:17:26.868Z,99858.47
2022-12-11T03:20:42.385Z,99878.59
2022-12-11T03:23:53.880Z,99877.16
2022-12-11T03:27:11.340Z,99879.22
2022-12-11T03:30:17.484Z,99881.47
2022-12-11T03:33:33.963Z,99875.03
2022-12-11T03:36:38.234Z,99871.13
2022-12-11T03:39:45.169Z,99857.97
2022-12-11T03:42:50.902Z,99851.41
2022-12-11T03:45:54.480Z,99862.31
2022-12-11T03:49:00.311Z,99847.69
2022-12-11T03:52:04.401Z,99847.69
2022-12-11T03:55:07.824Z,99852.81
2022-12-11T03:58:10.271Z,99846.50
2022-12-11T04:01:12.686Z,99847.72
2022-12-11T04:04:14.998Z,99836.19
2022-12-11T04:07:17.674Z,99839.09
2022-12-11T04:10:19.975Z,99843.63
2022-12-11T04:13:22.316Z,99838.88
2022-12-11T04:16:24.728Z,99836.41
2022-12-11T04:19:45.945Z,99831.50
2022-12-11T04:23:07.080Z,99832.75
2022-12-11T04:26:16.551Z,99830.25
2022-12-11T04:29:18.899Z,99821.84
2022-12-11T04:32:21.217Z,99823.50
2022-12-11T04:35:23.677Z,99822.41
2022-12-11T04:38:26.339Z,99832.91
2022-12-11T04:41:29.117Z,99827.47
2022-12-11T04:44:31.723Z,99823.97
2022-12-11T04:47:38.679Z,99830.75
2022-12-11T04:50:41.103Z,99831.72
2022-12-11T04:53:43.776Z,99844.75
2022-12-11T04:56:46.014Z,99843.50
2022-12-11T04:59:48.851Z,99847.25
2022-12-11T05:02:51.240Z,99843.97
2022-12-11T05:05:54.875Z,99857.28
2022-12-11T05:08:57.186Z,99853.06
2022-12-11T05:11:59.649Z,99853.53
2022-12-11T05:15:02.050Z,99850.69
2022-12-11T05:18:04.402Z,99826.00
2022-12-11T05:21:09.609Z,99850.25
2022-12-11T05:24:11.929Z,99833.47
2022-12-11T05:27:14.397Z,99820.03
2022-12-11T05:30:16.838Z,99832.69
2022-12-11T05:33:19.128Z,99829.47
2022-12-11T05:36:24.725Z,99823.53
2022-12-11T05:39:27.098Z,99823.72
2022-12-11T05:42:29.509Z,99824.53
2022-12-11T05:45:31.842Z,99828.06
2022-12-11T05:48:34.805Z,99832.19
2022-12-11T05:51:39.652Z,99814.28
2022-12-11T05:54:41.942Z,99826.81
2022-12-11T05:57:44.768Z,99824.19
2022-12-11T06:00:48.239Z,99820.25
2022-12-11T06:03:50.676Z,99817.25
2022-12-11T06:06:55.678Z,99814.75
2022-12-11T06:09:58.006Z,99811.91
2022-12-11T06:13:00.480Z,99807.56
2022-12-11T06:16:06.852Z,99792.16
2022-12-11T06:19:14.989Z,99785.56
2022-12-11T06:22:17.314Z,99795.22
2022-12-11T06:25:19.689Z,99798.53
2022-12-11T06:28:22.077Z,99799.69
2022-12-11T06:31:24.476Z,99806.66
2022-12-11T06:34:26.930Z,99800.03
2022-12-11T06:37:29.260Z,99811.41
2022-12-11T06:40:31.576Z,99812.78
2022-12-11T06:43:35.062Z,99814.25
2022-12-11T06:46:37.381Z,99820.94
2022-12-11T06:49:39.723Z,99832.06
2022-12-11T06:52:42.057Z,99818.03
2022-12-11T06:55:44.463Z,99813.59
2022-12-11T06:58:46.790Z,99834.41
2022-12-11T07:01:49.213Z,99835.59
2022-12-11T07:04:55.055Z,99828.97
2022-12-11T07:07:57.840Z,99820.19
2022-12-11T07:11:08.443Z,99821.59
2022-12-11T07:14:10.814Z,99808.13
2022-12-11T07:17:13.312Z,99817.81
2022-12-11T07:20:15.751Z,99814.97
2022-12-11T07:23:18.323Z,99813.09
2022-12-11T07:26:22.377Z,99823.50
2022-12-11T07:29:24.798Z,99820.59
2022-12-11T07:32:27.233Z,99825.81
2022-12-11T07:35:29.707Z,99812.06
2022-12-11T07:38:32.299Z,99818.44
2022-12-11T07:41:34.620Z,99817.78
2022-12-11T07:44:36.932Z,99833.69
2022-12-11T07:47:39.272Z,99827.38
2022-12-11T07:50:41.609Z,99820.06
2022-12-11T07:53:49.092Z,99825.63
2022-12-11T07:56:53.887Z,99830.22
2022-12-11T07:59:56.598Z,99829.75
2022-12-11T08:02:59.135Z,99825.88
2022-12-11T08:06:01.446Z,99817.00
2022-12-11T08:09:06.448Z,99806.81
2022-12-11T08:12:08.738Z,99815.59
2022-12-11T08:15:11.802Z,99827.00
2022-12-11T08:18:14.423Z,99824.31
2022-12-11T08:21:23.171Z,99821.16
2022-12-11T08:24:25.523Z,99819.66
2022-12-11T08:27:27.837Z,99811.41
2022-12-11T08:30:30.807Z,99807.03
2022-12-11T08:33:33.250Z,99808.00
2022-12-11T08:36:35.537Z,99803.88
2022-12-11T08:39:38.042Z,99800.44
2022-12-11T08:42:40.719Z,99808.59
2022-12-11T08:45:43.090Z,99816.88
2022-12-11T08:48:45.523Z,99810.19
2022-12-11T08:51:47.895Z,99797.31
2022-12-11T08:54:50.202Z,99806.31
2022-12-11T08:57:52.633Z,99801.19
2022-12-11T09:00:54.946Z,99798.59
2022-12-11T09:03:57.923Z,99792.38
2022-12-11T09:07:00.268Z,99791.59
2022-12-11T09:10:03.057Z,99792.22
2022-12-11T09:13:05.505Z,99785.31
2022-12-11T09:16:10.631Z,99787.91
2022-12-11T09:19:14.595Z,99780.97
2022-12-11T09:22:16.966Z,99759.56
2022-12-11T09:25:19.377Z,99760.56
2022-12-11T09:28:22.016Z,99747.50
2022-12-11T09:31:29.920Z,99757.00
2022-12-11T09:34:32.176Z,99755.81
2022-12-11T09:37:35.414Z,99751.69
2022-12-11T09:40:43.300Z,99756.22
2022-12-11T09:43:47.661Z,99762.13
2022-12-11T09:46:51.763Z,99750.25
2022-12-11T09:49:59.836Z,99736.31
2022-12-11T09:53:12.321Z,99752.78
2022-12-11T09:56:26.560Z,99751.91
2022-12-11T09:59:51.955Z,99751.69
2022-12-11T10:03:19.201Z,99750.06
2022-12-11T10:06:37.558Z,99746.16
2022-12-11T10:10:05.939Z,99733.69
2022-12-11T10:13:26.334Z,99719.97
2022-12-11T10:16:53.683Z,99725.09
2022-12-11T10:19:58.090Z,99715.84
2022-12-11T10:23:00.537Z,99717.09
2022-12-11T10:26:23.771Z,99714.41
2022-12-11T10:29:26.251Z,99708.06
2022-12-11T10:32:45.740Z,99695.34
2022-12-11T10:35:56.364Z,99691.22
2022-12-11T10:38:59.034Z,99694.28
2022-12-11T10:42:04.874Z,99679.50
2022-12-11T10:45:07.569Z,99687.50
2022-12-11T10:48:13.385Z,99676.00
2022-12-11T10:51:16.124Z,99685.06
2022-12-11T10:54:48.985Z,99683.41
2022-12-11T10:57:59.386Z,99676.41
2022-12-11T11:01:05.070Z,99664.53
2022-12-11T11:04:26.228Z,99664.94
2022-12-11T11:07:31.023Z,99661.22
2022-12-11T11:10:33.903Z,99652.19
2022-12-11T11:13:36.553Z,99654.47
2022-12-11T11:16:39.820Z,99655.88
2022-12-11T11:19:42.414Z,99653.00
2022-12-11T11:22:52.471Z,99649.94
2022-12-11T11:25:58.708Z,99644.19
2022-12-11T11:29:01.073Z,99640.28
2022-12-11T11:32:24.254Z,99628.81
2022-12-11T11:35:28.348Z,99633.50
2022-12-11T11:38:39.873Z,99621.22
2022-12-11T11:42:05.213Z,99623.88
2022-12-11T11:45:18.689Z,99616.06
2022-12-11T11:48:45.468Z,99614.63
2022-12-11T11:51:52.101Z,99610.31
2022-12-11T11:55:10.281Z,99611.75
2022-12-11T11:58:55.457Z,99609.66
2022-12-11T12:01:59.070Z,99593.69
2022-12-11T12:05:01.326Z,99586.91
2022-12-11T12:08:20.628Z,99588.75
2022-12-11T12:11:43.419Z,99586.53
2022-12-11T12:15:18.505Z,99582.59
2022-12-11T12:18:39.294Z,99577.06
2022-12-11T12:21:44.971Z,99581.56
2022-12-11T12:25:09.336Z,99576.44
2022-12-11T12:28:23.376Z,99578.91
2022-12-11T12:31:36.085Z,99574.19
2022-12-11T12:35:11.313Z,99578.09
2022-12-11T12:38:36.719Z,99579.88
2022-12-11T12:42:07.679Z,99579.53
2022-12-11T12:45:15.975Z,99582.94
2022-12-11T12:48:18.549Z,99566.75
2022-12-11T12:51:21.219Z,99565.16
2022-12-11T12:54:24.090Z,99556.72
2022-12-11T12:57:26.478Z,99550.38
2022-12-11T13:00:31.771Z,99550.00
2022-12-11T13:03:37.545Z,99546.47
2022-12-11T13:06:43.969Z,99540.50
2022-12-11T13:09:57.353Z,99545.41
2022-12-11T13:13:00.928Z,99538.84
2022-12-11T13:16:07.105Z,99535.19
2022-12-11T13:19:25.559Z,99534.56
2022-12-11T13:22:27.880Z,99537.03
2022-12-11T13:25:35.233Z,99541.50
2022-12-11T13:28:41.154Z,99545.41
2022-12-11T13:31:45.628Z,99544.38
2022-12-11T13:34:54.496Z,99543.97
2022-12-11T13:38:02.570Z,99546.63
2022-12-11T13:41:11.171Z,99547.88
2022-12-11T13:44:20.961Z,99542.16
2022-12-11T13:47:23.521Z,99542.16
2022-12-11T13:50:29.942Z,99539.69
2022-12-11T13:53:32.682Z,99530.84
2022-12-11T13:56:35.264Z,99533.75
2022-12-11T13:59:42.530Z,99537.59
2022-12-11T14:02:44.998Z,99535.56
2022-12-11T14:05:47.313Z,99539.28
2022-12-11T14:08:52.689Z,99534.94
2022-12-11T14:11:57.435Z,99531.06
2022-12-11T14:15:02.152Z,99533.91
2022-12-11T14:18:05.718Z,99528.56
2022-12-11T14:21:07.895Z,99525.09
2022-12-11T14:24:14.362Z,99520.56
2022-12-11T14:27:18.753Z,99524.28
2022-12-11T14:30:29.075Z,99522.44
2022-12-11T14:33:37.210Z,99518.31
2022-12-11T14:36:40.154Z,99518.97
2022-12-11T14:39:48.568Z,99521.59
2022-12-11T14:43:00.110Z,99520.16
2022-12-11T14:46:06.783Z,99528.53
2022-12-11T14:49:27.703Z,99522.84
2022-12-11T14:52:33.891Z,99518.72
2022-12-11T14:55:38.860Z,99510.94
2022-12-11T14:58:48.547Z,99496.31
2022-12-11T15:02:02.982Z,99518.28
2022-12-11T15:05:13.682Z,99516.06
2022-12-11T15:08:15.993Z,99504.78
2022-12-11T15:11:19.109Z,99509.91
2022-12-11T15:14:23.517Z,99510.31
2022-12-11T15:17:26.898Z,99501.72
2022-12-11T15:20:30.240Z,99500.50
2022-12-11T15:23:32.639Z,99499.88
2022-12-11T15:26:42.355Z,99503.97
2022-12-11T15:29:44.649Z,99506.25
2022-12-11T15:32:48.036Z,99497.84
2022-12-11T15:35:57.598Z,99506.84
2022-12-11T15:38:59.949Z,99503.38
2022-12-11T15:42:02.422Z,99494.94
2022-12-11T15:45:07.827Z,99502.56
2022-12-11T15:48:11.568Z,99504.59
2022-12-11T15:51:13.773Z,99502.75
2022-12-11T15:54:16.007Z,99499.47
2022-12-11T15:57:21.072Z,99501.31
2022-12-11T16:00:24.191Z,99500.94
2022-12-11T16:03:26.486Z,99491.69
2022-12-11T16:06:28.995Z,99492.09
2022-12-11T16:09:34.676Z,99490.03
2022-12-11T16:12:37.031Z,99483.28
2022-12-11T16:15:41.724Z,99482.88
2022-12-11T16:18:44.447Z,99473.84
2022-12-11T16:21:46.785Z,99479.59
2022-12-11T16:24:49.409Z,99477.31
2022-12-11T16:27:52.045Z,99476.50
2022-12-11T16:30:54.409Z,99471.16
2022-12-11T16:33:56.911Z,99472.78
2022-12-11T16:36:59.927Z,99469.31
2022-12-11T16:40:02.452Z,99453.88
2022-12-11T16:43:05.686Z,99456.56
2022-12-11T16:46:07.981Z,99451.78
2022-12-11T16:49:10.449Z,99439.53
2022-12-11T16:52:15.338Z,99432.50
2022-12-11T16:55:22.351Z,99427.75
2022-12-11T16:58:24.709Z,99427.59
2022-12-11T17:01:27.378Z,99425.88
2022-12-11T17:04:29.769Z,99421.31
2022-12-11T17:07:33.309Z,99421.50
2022-12-11T17:10:40.171Z,99415.91
2022-12-11T17:13:43.620Z,99410.19
2022-12-11T17:16:45.956Z,99410.28
2022-12-11T17:19:48.372Z,99404.50
2022-12-11T17:22:51.063Z,99404.53
2022-12-11T17:25:53.533Z,99409.84
2022-12-11T17:28:57.751Z,99386.47
2022-12-11T17:32:00.237Z,99396.53
2022-12-11T17:35:02.720Z,99403.91
2022-12-11T17:38:05.427Z,99402.63
2022-12-11T17:41:09.034Z,99394.19
2022-12-11T17:44:11.435Z,99390.88
2022-12-11T17:47:13.758Z,99398.97
2022-12-11T17:50:16.189Z,99401.13
2022-12-11T17:53:20.211Z,99391.94
2022-12-11T17:56:23.996Z,99404.94
2022-12-11T17:59:26.242Z,99392.47
2022-12-11T18:02:28.588Z,99387.16
2022-12-11T18:05:31.134Z,99387.03
2022-12-11T18:08:33.749Z,99378.41
2022-12-11T18:11:36.212Z,99379.94
2022-12-11T18:14:38.662Z,99374.16
2022-12-11T18:17:41.729Z,99377.88
2022-12-11T18:20:44.260Z,99379.03
2022-12-11T18:23:46.668Z,99388.66
2022-12-11T18:26:49.714Z,99387.78
2022-12-11T18:29:52.404Z,99381.88
2022-12-11T18:32:54.889Z,99385.91
2022-12-11T18:35:57.703Z,99385.22
2022-12-11T18:39:00.279Z,99385.59
2022-12-11T18:42:31.638Z,99386.53
2022-12-11T18:45:25.155Z,99390.66
2022-12-11T18:48:27.610Z,99390.06
2022-12-11T18:51:30.379Z,99378.41
2022-12-11T18:54:32.742Z,99382.50
2022-12-11T18:57:35.121Z,99395.91
2022-12-11T19:00:39.193Z,99396.81
2022-12-11T19:03:41.689Z,99386.19
2022-12-11T19:06:44.251Z,99388.19
2022-12-11T19:09:48.460Z,99393.81
2022-12-11T19:12:50.945Z,99399.38
2022-12-11T19:15:53.306Z,99402.09
2022-12-11T19:18:58.904Z,99404.00
2022-12-11T19:22:01.194Z,99407.69
2022-12-11T19:25:05.662Z,99400.56
2022-12-11T19:28:07.964Z,99405.84
2022-12-11T19:31:12.445Z,99400.41
2022-12-11T19:34:15.973Z,99400.63
2022-12-11T19:37:18.718Z,99379.88
2022-12-11T19:40:21.929Z,99394.28
2022-12-11T19:43:24.269Z,99392.63
2022-12-11T19:46:27.648Z,99393.53
2022-12-11T19:49:30.387Z,99392.75
2022-12-11T19:52:32.852Z,99389.75
2022-12-11T19:55:35.157Z,99390.47
2022-12-11T19:58:37.944Z,99391.13
2022-12-11T20:01:40.915Z,99377.25
2022-12-11T20:04:43.276Z,99387.13
2022-12-11T20:07:45.736Z,99392.00
2022-12-11T20:10:48.467Z,99393.47
2022-12-11T20:13:51.636Z,99379.81
2022-12-11T20:17:12.089Z,99383.41
2022-12-11T20:20:15.627Z,99378.53
2022-12-11T20:23:18.159Z,99386.81
2022-12-11T20:26:23.809Z,99383.47
2022-12-11T20:29:26.583Z,99385.78
2022-12-11T20:32:29.167Z,99392.41
2022-12-11T20:35:32.071Z,99372.78
2022-12-11T20:38:34.756Z,99388.25
2022-12-11T20:41:37.271Z,99369.03
2022-12-11T20:44:42.827Z,99379.94
2022-12-11T20:47:50.121Z,99369.03
2022-12-11T20:50:52.819Z,99364.88
2022-12-11T20:53:59.770Z,99375.38
2022-12-11T20:57:02.174Z,99377.94
2022-12-11T21:00:06.734Z,99368.91
2022-12-11T21:03:09.193Z,99363.84
2022-12-11T21:06:39.027Z,99364.06
2022-12-11T21:09:41.975Z,99352.34
2022-12-11T21:12:44.379Z,99356.28
2022-12-11T21:15:46.650Z,99346.94
2022-12-11T21:18:49.372Z,99342.69
2022-12-11T21:21:52.139Z,99343.88
2022-12-11T21:24:54.638Z,99329.97
2022-12-11T21:27:56.957Z,99339.56
2022-12-11T21:31:04.996Z,99333.72
2022-12-11T21:34:07.572Z,99332.84
2022-12-11T21:37:10.024Z,99341.59
2022-12-11T21:40:12.753Z,99330.66
2022-12-11T21:43:15.380Z,99334.09
2022-12-11T21:46:20.721Z,99331.88
2022-12-11T21:49:23.207Z,99338.03
2022-12-11T21:52:25.614Z,99331.25
2022-12-11T21:55:28.512Z,99326.66
2022-12-11T21:58:30.823Z,99318.63
2022-12-11T22:01:38.652Z,99316.28
2022-12-11T22:04:42.191Z,99310.22
2022-12-11T22:07:44.597Z,99314.41
2022-12-11T22:10:46.974Z,99313.03
2022-12-11T22:13:49.430Z,99313.44
2022-12-11T22:16:51.767Z,99312.06
2022-12-11T22:19:54.104Z,99316.53
2022-12-11T22:22:56.767Z,99306.97
2022-12-11T22:25:59.397Z,99300.78
2022-12-11T22:29:01.763Z,99301.53
2022-12-11T22:32:05.004Z,99295.22
2022-12-11T22:35:07.841Z,99296.84
2022-12-11T22:38:10.169Z,99287.84
2022-12-11T22:41:20.455Z,99287.09
2022-12-11T22:44:24.437Z,99291.78
2022-12-11T22:47:26.817Z,99276.69
2022-12-11T22:50:29.175Z,99283.59
2022-12-11T22:53:31.602Z,99281.88
2022-12-11T22:56:33.907Z,99288.19
2022-12-11T22:59:37.165Z,99283.69
2022-12-11T23:02:39.611Z,99281.94
2022-12-11T23:05:43.332Z,99282.63
2022-12-11T23:08:45.958Z,99284.38
2022-12-11T23:11:48.288Z,99199.84
2022-12-11T23:14:51.511Z,99276.38
2022-12-11T23:17:53.876Z,99275.75
2022-12-11T23:20:56.269Z,99273.50
2022-12-11T23:23:59.282Z,99276.44
2022-12-11T23:27:01.938Z,99289.06
2022-12-11T23:30:05.009Z,99288.44
2022-12-11T23:33:07.354Z,99283.25
2022-12-11T23:36:10.070Z,99281.34
2022-12-11T23:39:12.569Z,99283.94
2022-12-11T23:42:16.665Z,99292.78
2022-12-11T23:45:21.213Z,99291.22
2022-12-11T23:48:24.004Z,99283.31
2022-12-11T23:51:26.469Z,99277.41
2022-12-11T23:54:29.679Z,99277.56
2022-12-11T23:57:32.078Z,99261.16
